sensor_id;sensor_type;location;lat;lon;timestamp;P1;durP1;ratioP1;P2;durP2;ratioP2
703;SDS011;335;48.694;9.120;2023-04-25T00:01:45;2.60;;;2.50;;
703;SDS011;335;48.694;9.120;2023-04-25T00:04:11;3.37;;;3.07;;
703;SDS011;335;48.694;9.120;2023-04-25T00:06:36;4.13;;;3.80;;
703;SDS011;335;48.694;9.120;2023-04-25T00:09:02;2.97;;;2.77;;
703;SDS011;335;48.694;9.120;2023-04-25T00:11:28;3.23;;;2.93;;
703;SDS011;335;48.694;9.120;2023-04-25T00:13:55;3.70;;;3.50;;
703;SDS011;335;48.694;9.120;2023-04-25T00:16:22;3.87;;;3.57;;
703;SDS011;335;48.694;9.120;2023-04-25T00:18:48;5.30;;;3.83;;
703;SDS011;335;48.694;9.120;2023-04-25T00:21:16;3.27;;;3.00;;
703;SDS011;335;48.694;9.120;2023-04-25T00:23:45;4.10;;;3.70;;
703;SDS011;335;48.694;9.120;2023-04-25T00:26:11;3.57;;;3.37;;
703;SDS011;335;48.694;9.120;2023-04-25T00:28:36;4.00;;;3.70;;
703;SDS011;335;48.694;9.120;2023-04-25T00:31:02;3.43;;;3.23;;
703;SDS011;335;48.694;9.120;2023-04-25T00:33:27;4.03;;;3.73;;
703;SDS011;335;48.694;9.120;2023-04-25T00:35:53;3.20;;;3.00;;
703;SDS011;335;48.694;9.120;2023-04-25T00:38:18;3.30;;;3.10;;
703;SDS011;335;48.694;9.120;2023-04-25T00:40:44;3.30;;;3.10;;
703;SDS011;335;48.694;9.120;2023-04-25T00:43:09;3.57;;;2.80;;
703;SDS011;335;48.694;9.120;2023-04-25T00:45:34;3.37;;;3.13;;
703;SDS011;335;48.694;9.120;2023-04-25T00:48:03;3.20;;;2.80;;
703;SDS011;335;48.694;9.120;2023-04-25T00:50:29;3.13;;;2.83;;
703;SDS011;335;48.694;9.120;2023-04-25T00:52:55;3.93;;;2.40;;
703;SDS011;335;48.694;9.120;2023-04-25T00:55:20;2.40;;;2.30;;
703;SDS011;335;48.694;9.120;2023-04-25T00:57:46;2.80;;;2.60;;
703;SDS011;335;48.694;9.120;2023-04-25T01:00:11;3.03;;;2.40;;
703;SDS011;335;48.694;9.120;2023-04-25T01:02:39;2.50;;;2.30;;
703;SDS011;335;48.694;9.120;2023-04-25T01:05:05;2.40;;;2.30;;
703;SDS011;335;48.694;9.120;2023-04-25T01:07:30;2.40;;;2.30;;
703;SDS011;335;48.694;9.120;2023-04-25T01:09:56;2.70;;;2.60;;
703;SDS011;335;48.694;9.120;2023-04-25T01:12:21;2.60;;;2.40;;
703;SDS011;335;48.694;9.120;2023-04-25T01:14:47;3.40;;;2.83;;
703;SDS011;335;48.694;9.120;2023-04-25T01:17:12;2.37;;;2.27;;
703;SDS011;335;48.694;9.120;2023-04-25T01:19:38;1.87;;;1.87;;
703;SDS011;335;48.694;9.120;2023-04-25T01:22:04;3.10;;;2.90;;
703;SDS011;335;48.694;9.120;2023-04-25T01:24:30;3.10;;;2.90;;
703;SDS011;335;48.694;9.120;2023-04-25T01:26:57;3.30;;;3.10;;
703;SDS011;335;48.694;9.120;2023-04-25T01:29:23;4.67;;;3.77;;
703;SDS011;335;48.694;9.120;2023-04-25T01:31:49;3.33;;;3.13;;
703;SDS011;335;48.694;9.120;2023-04-25T01:34:16;3.13;;;2.93;;
703;SDS011;335;48.694;9.120;2023-04-25T01:36:41;4.17;;;3.07;;
703;SDS011;335;48.694;9.120;2023-04-25T01:39:07;4.30;;;4.00;;
703;SDS011;335;48.694;9.120;2023-04-25T01:41:33;3.77;;;3.40;;
703;SDS011;335;48.694;9.120;2023-04-25T01:43:59;3.00;;;2.88;;
703;SDS011;335;48.694;9.120;2023-04-25T01:46:25;3.70;;;3.10;;
703;SDS011;335;48.694;9.120;2023-04-25T01:48:50;3.73;;;3.43;;
703;SDS011;335;48.694;9.120;2023-04-25T01:51:16;3.67;;;3.37;;
703;SDS011;335;48.694;9.120;2023-04-25T01:53:41;3.00;;;2.80;;
703;SDS011;335;48.694;9.120;2023-04-25T01:56:07;4.00;;;2.77;;
703;SDS011;335;48.694;9.120;2023-04-25T01:58:33;3.70;;;3.20;;
703;SDS011;335;48.694;9.120;2023-04-25T02:00:58;3.17;;;2.97;;
703;SDS011;335;48.694;9.120;2023-04-25T02:03:23;3.20;;;3.10;;
703;SDS011;335;48.694;9.120;2023-04-25T02:05:49;3.23;;;2.93;;
703;SDS011;335;48.694;9.120;2023-04-25T02:08:16;2.53;;;2.43;;
703;SDS011;335;48.694;9.120;2023-04-25T02:10:42;3.53;;;3.23;;
703;SDS011;335;48.694;9.120;2023-04-25T02:13:07;3.40;;;3.20;;
703;SDS011;335;48.694;9.120;2023-04-25T02:15:33;4.70;;;3.00;;
703;SDS011;335;48.694;9.120;2023-04-25T02:17:58;3.50;;;3.20;;
703;SDS011;335;48.694;9.120;2023-04-25T02:20:25;2.53;;;2.43;;
703;SDS011;335;48.694;9.120;2023-04-25T02:22:50;3.70;;;3.07;;
703;SDS011;335;48.694;9.120;2023-04-25T02:25:16;3.40;;;3.20;;
703;SDS011;335;48.694;9.120;2023-04-25T02:27:42;2.87;;;2.67;;
703;SDS011;335;48.694;9.120;2023-04-25T02:30:08;3.23;;;3.03;;
703;SDS011;335;48.694;9.120;2023-04-25T02:32:34;2.70;;;2.60;;
703;SDS011;335;48.694;9.120;2023-04-25T02:34:59;2.83;;;2.63;;
703;SDS011;335;48.694;9.120;2023-04-25T02:37:28;3.03;;;2.83;;
703;SDS011;335;48.694;9.120;2023-04-25T02:39:57;2.43;;;2.33;;
703;SDS011;335;48.694;9.120;2023-04-25T02:42:22;2.30;;;2.20;;
703;SDS011;335;48.694;9.120;2023-04-25T02:44:47;4.00;;;3.70;;
703;SDS011;335;48.694;9.120;2023-04-25T02:47:13;3.53;;;3.10;;
703;SDS011;335;48.694;9.120;2023-04-25T02:49:38;3.37;;;2.50;;
703;SDS011;335;48.694;9.120;2023-04-25T02:52:04;3.03;;;2.83;;
703;SDS011;335;48.694;9.120;2023-04-25T02:54:29;2.83;;;2.70;;
703;SDS011;335;48.694;9.120;2023-04-25T02:56:55;2.93;;;2.77;;
703;SDS011;335;48.694;9.120;2023-04-25T02:59:20;3.30;;;2.90;;
703;SDS011;335;48.694;9.120;2023-04-25T03:01:45;3.03;;;2.73;;
703;SDS011;335;48.694;9.120;2023-04-25T03:04:11;2.53;;;2.43;;
703;SDS011;335;48.694;9.120;2023-04-25T03:06:36;4.63;;;2.50;;
703;SDS011;335;48.694;9.120;2023-04-25T03:09:01;3.20;;;3.00;;
703;SDS011;335;48.694;9.120;2023-04-25T03:11:27;3.10;;;2.90;;
703;SDS011;335;48.694;9.120;2023-04-25T03:13:52;2.27;;;2.07;;
703;SDS011;335;48.694;9.120;2023-04-25T03:16:17;3.40;;;3.10;;
703;SDS011;335;48.694;9.120;2023-04-25T03:18:43;3.30;;;3.10;;
703;SDS011;335;48.694;9.120;2023-04-25T03:21:08;3.60;;;3.40;;
703;SDS011;335;48.694;9.120;2023-04-25T03:23:33;3.37;;;2.60;;
703;SDS011;335;48.694;9.120;2023-04-25T03:25:59;3.20;;;2.90;;
703;SDS011;335;48.694;9.120;2023-04-25T03:28:24;2.73;;;2.53;;
703;SDS011;335;48.694;9.120;2023-04-25T03:30:50;6.23;;;3.10;;
703;SDS011;335;48.694;9.120;2023-04-25T03:33:15;5.40;;;4.70;;
703;SDS011;335;48.694;9.120;2023-04-25T03:35:40;5.50;;;3.20;;
703;SDS011;335;48.694;9.120;2023-04-25T03:38:07;3.40;;;3.03;;
703;SDS011;335;48.694;9.120;2023-04-25T03:40:33;3.27;;;3.07;;
703;SDS011;335;48.694;9.120;2023-04-25T03:42:58;4.10;;;2.90;;
703;SDS011;335;48.694;9.120;2023-04-25T03:45:23;3.50;;;3.20;;
703;SDS011;335;48.694;9.120;2023-04-25T03:47:48;3.63;;;3.33;;
703;SDS011;335;48.694;9.120;2023-04-25T03:50:14;3.67;;;3.37;;
703;SDS011;335;48.694;9.120;2023-04-25T03:52:39;3.17;;;2.97;;
703;SDS011;335;48.694;9.120;2023-04-25T03:55:05;3.47;;;3.27;;
703;SDS011;335;48.694;9.120;2023-04-25T03:57:30;4.33;;;3.83;;
703;SDS011;335;48.694;9.120;2023-04-25T03:59:56;3.10;;;2.90;;
703;SDS011;335;48.694;9.120;2023-04-25T04:02:21;3.77;;;3.47;;
703;SDS011;335;48.694;9.120;2023-04-25T04:04:47;2.73;;;2.40;;
703;SDS011;335;48.694;9.120;2023-04-25T04:07:12;5.40;;;3.20;;
703;SDS011;335;48.694;9.120;2023-04-25T04:09:37;3.70;;;3.37;;
703;SDS011;335;48.694;9.120;2023-04-25T04:12:03;3.40;;;3.10;;
703;SDS011;335;48.694;9.120;2023-04-25T04:14:28;3.27;;;3.07;;
703;SDS011;335;48.694;9.120;2023-04-25T04:16:53;3.73;;;3.43;;
703;SDS011;335;48.694;9.120;2023-04-25T04:19:19;4.23;;;3.30;;
703;SDS011;335;48.694;9.120;2023-04-25T04:21:44;3.93;;;3.67;;
703;SDS011;335;48.694;9.120;2023-04-25T04:24:10;3.60;;;3.40;;
703;SDS011;335;48.694;9.120;2023-04-25T04:26:35;3.87;;;3.30;;
703;SDS011;335;48.694;9.120;2023-04-25T04:29:02;3.40;;;3.10;;
703;SDS011;335;48.694;9.120;2023-04-25T04:31:27;3.97;;;3.67;;
703;SDS011;335;48.694;9.120;2023-04-25T04:33:53;3.60;;;3.40;;
703;SDS011;335;48.694;9.120;2023-04-25T04:36:18;4.53;;;4.13;;
703;SDS011;335;48.694;9.120;2023-04-25T04:38:48;4.70;;;4.30;;
703;SDS011;335;48.694;9.120;2023-04-25T04:41:13;3.80;;;3.57;;
703;SDS011;335;48.694;9.120;2023-04-25T04:43:39;4.27;;;3.97;;
703;SDS011;335;48.694;9.120;2023-04-25T04:46:04;4.23;;;4.00;;
703;SDS011;335;48.694;9.120;2023-04-25T04:48:31;3.60;;;3.30;;
703;SDS011;335;48.694;9.120;2023-04-25T04:50:59;3.57;;;3.23;;
703;SDS011;335;48.694;9.120;2023-04-25T04:53:24;4.27;;;3.27;;
703;SDS011;335;48.694;9.120;2023-04-25T04:55:49;3.70;;;3.50;;
703;SDS011;335;48.694;9.120;2023-04-25T04:58:15;3.37;;;3.17;;
703;SDS011;335;48.694;9.120;2023-04-25T05:00:40;3.23;;;2.93;;
703;SDS011;335;48.694;9.120;2023-04-25T05:03:06;3.03;;;2.83;;
703;SDS011;335;48.694;9.120;2023-04-25T05:05:31;4.73;;;3.50;;
703;SDS011;335;48.694;9.120;2023-04-25T05:07:56;4.20;;;3.80;;
703;SDS011;335;48.694;9.120;2023-04-25T05:10:22;4.73;;;3.90;;
703;SDS011;335;48.694;9.120;2023-04-25T05:12:47;4.50;;;4.20;;
703;SDS011;335;48.694;9.120;2023-04-25T05:15:13;3.53;;;3.30;;
703;SDS011;335;48.694;9.120;2023-04-25T05:17:38;4.30;;;3.90;;
703;SDS011;335;48.694;9.120;2023-04-25T05:20:07;4.40;;;4.10;;
703;SDS011;335;48.694;9.120;2023-04-25T05:22:34;4.10;;;3.80;;
703;SDS011;335;48.694;9.120;2023-04-25T05:24:59;4.17;;;3.70;;
703;SDS011;335;48.694;9.120;2023-04-25T05:27:25;5.07;;;4.07;;
703;SDS011;335;48.694;9.120;2023-04-25T05:29:50;3.80;;;3.47;;
703;SDS011;335;48.694;9.120;2023-04-25T05:32:16;4.40;;;4.00;;
703;SDS011;335;48.694;9.120;2023-04-25T05:34:42;4.40;;;4.03;;
703;SDS011;335;48.694;9.120;2023-04-25T05:37:07;4.70;;;4.30;;
703;SDS011;335;48.694;9.120;2023-04-25T05:39:33;4.50;;;4.17;;
703;SDS011;335;48.694;9.120;2023-04-25T05:41:58;4.80;;;3.70;;
703;SDS011;335;48.694;9.120;2023-04-25T05:44:23;4.93;;;4.00;;
703;SDS011;335;48.694;9.120;2023-04-25T05:46:49;5.90;;;4.60;;
703;SDS011;335;48.694;9.120;2023-04-25T05:49:14;6.87;;;4.37;;
703;SDS011;335;48.694;9.120;2023-04-25T05:51:40;4.53;;;4.23;;
703;SDS011;335;48.694;9.120;2023-04-25T05:54:05;5.60;;;3.80;;
703;SDS011;335;48.694;9.120;2023-04-25T05:56:30;5.10;;;4.80;;
703;SDS011;335;48.694;9.120;2023-04-25T05:58:56;4.50;;;4.10;;
703;SDS011;335;48.694;9.120;2023-04-25T06:01:22;4.73;;;4.27;;
703;SDS011;335;48.694;9.120;2023-04-25T06:03:47;5.50;;;3.70;;
703;SDS011;335;48.694;9.120;2023-04-25T06:06:13;4.90;;;4.40;;
703;SDS011;335;48.694;9.120;2023-04-25T06:08:38;5.10;;;4.23;;
703;SDS011;335;48.694;9.120;2023-04-25T06:11:04;4.47;;;4.17;;
703;SDS011;335;48.694;9.120;2023-04-25T06:13:29;4.40;;;4.10;;
703;SDS011;335;48.694;9.120;2023-04-25T06:15:55;4.13;;;3.90;;
703;SDS011;335;48.694;9.120;2023-04-25T06:18:20;4.43;;;3.90;;
703;SDS011;335;48.694;9.120;2023-04-25T06:20:45;4.27;;;3.97;;
703;SDS011;335;48.694;9.120;2023-04-25T06:23:11;4.63;;;4.23;;
703;SDS011;335;48.694;9.120;2023-04-25T06:25:36;6.70;;;3.80;;
703;SDS011;335;48.694;9.120;2023-04-25T06:28:01;3.93;;;3.63;;
703;SDS011;335;48.694;9.120;2023-04-25T06:30:27;5.13;;;3.97;;
703;SDS011;335;48.694;9.120;2023-04-25T06:32:52;4.20;;;3.77;;
703;SDS011;335;48.694;9.120;2023-04-25T06:35:18;4.53;;;4.23;;
703;SDS011;335;48.694;9.120;2023-04-25T06:37:43;4.40;;;4.10;;
703;SDS011;335;48.694;9.120;2023-04-25T06:40:09;3.53;;;3.33;;
703;SDS011;335;48.694;9.120;2023-04-25T06:42:35;3.33;;;3.13;;
703;SDS011;335;48.694;9.120;2023-04-25T06:45:00;4.30;;;3.93;;
703;SDS011;335;48.694;9.120;2023-04-25T06:47:26;3.70;;;3.50;;
703;SDS011;335;48.694;9.120;2023-04-25T06:49:51;4.80;;;4.40;;
703;SDS011;335;48.694;9.120;2023-04-25T06:52:16;4.47;;;4.17;;
703;SDS011;335;48.694;9.120;2023-04-25T06:54:43;4.37;;;3.90;;
703;SDS011;335;48.694;9.120;2023-04-25T06:57:08;4.33;;;4.10;;
703;SDS011;335;48.694;9.120;2023-04-25T06:59:33;3.87;;;3.67;;
703;SDS011;335;48.694;9.120;2023-04-25T07:01:59;4.40;;;4.10;;
703;SDS011;335;48.694;9.120;2023-04-25T07:04:24;4.97;;;4.57;;
703;SDS011;335;48.694;9.120;2023-04-25T07:06:50;4.20;;;3.90;;
703;SDS011;335;48.694;9.120;2023-04-25T07:09:15;4.37;;;4.07;;
703;SDS011;335;48.694;9.120;2023-04-25T07:11:41;4.40;;;4.10;;
703;SDS011;335;48.694;9.120;2023-04-25T07:14:06;5.20;;;4.70;;
703;SDS011;335;48.694;9.120;2023-04-25T07:16:32;4.10;;;3.90;;
703;SDS011;335;48.694;9.120;2023-04-25T07:18:57;3.27;;;3.00;;
703;SDS011;335;48.694;9.120;2023-04-25T07:21:22;4.03;;;3.80;;
703;SDS011;335;48.694;9.120;2023-04-25T07:23:48;4.23;;;3.93;;
703;SDS011;335;48.694;9.120;2023-04-25T07:26:13;4.73;;;4.33;;
703;SDS011;335;48.694;9.120;2023-04-25T07:28:38;4.33;;;3.93;;
703;SDS011;335;48.694;9.120;2023-04-25T07:31:04;4.63;;;4.33;;
703;SDS011;335;48.694;9.120;2023-04-25T07:33:30;4.03;;;3.83;;
703;SDS011;335;48.694;9.120;2023-04-25T07:35:55;4.93;;;4.53;;
703;SDS011;335;48.694;9.120;2023-04-25T07:38:21;4.07;;;3.80;;
703;SDS011;335;48.694;9.120;2023-04-25T07:40:47;4.33;;;4.00;;
703;SDS011;335;48.694;9.120;2023-04-25T07:43:13;3.93;;;3.63;;
703;SDS011;335;48.694;9.120;2023-04-25T07:45:41;4.43;;;4.13;;
703;SDS011;335;48.694;9.120;2023-04-25T07:48:07;4.17;;;3.87;;
703;SDS011;335;48.694;9.120;2023-04-25T07:50:32;4.27;;;3.93;;
703;SDS011;335;48.694;9.120;2023-04-25T07:52:58;4.50;;;4.10;;
703;SDS011;335;48.694;9.120;2023-04-25T07:55:23;4.93;;;4.53;;
703;SDS011;335;48.694;9.120;2023-04-25T07:57:48;4.77;;;4.37;;
703;SDS011;335;48.694;9.120;2023-04-25T08:00:14;5.07;;;4.57;;
703;SDS011;335;48.694;9.120;2023-04-25T08:02:40;4.70;;;4.40;;
703;SDS011;335;48.694;9.120;2023-04-25T08:05:05;4.87;;;4.57;;
703;SDS011;335;48.694;9.120;2023-04-25T08:07:33;4.33;;;4.13;;
703;SDS011;335;48.694;9.120;2023-04-25T08:09:58;5.33;;;4.83;;
703;SDS011;335;48.694;9.120;2023-04-25T08:12:23;4.63;;;4.10;;
703;SDS011;335;48.694;9.120;2023-04-25T08:14:49;6.50;;;5.43;;
703;SDS011;335;48.694;9.120;2023-04-25T08:17:15;5.37;;;4.97;;
703;SDS011;335;48.694;9.120;2023-04-25T08:19:40;4.83;;;4.43;;
703;SDS011;335;48.694;9.120;2023-04-25T08:22:06;5.13;;;4.73;;
703;SDS011;335;48.694;9.120;2023-04-25T08:24:31;5.00;;;4.50;;
703;SDS011;335;48.694;9.120;2023-04-25T08:26:56;5.27;;;4.87;;
703;SDS011;335;48.694;9.120;2023-04-25T08:29:23;5.90;;;4.80;;
703;SDS011;335;48.694;9.120;2023-04-25T08:31:50;5.90;;;5.40;;
703;SDS011;335;48.694;9.120;2023-04-25T08:34:17;6.80;;;4.93;;
703;SDS011;335;48.694;9.120;2023-04-25T08:36:43;5.47;;;5.07;;
703;SDS011;335;48.694;9.120;2023-04-25T08:39:08;5.23;;;4.83;;
703;SDS011;335;48.694;9.120;2023-04-25T08:41:33;6.60;;;6.00;;
703;SDS011;335;48.694;9.120;2023-04-25T08:44:00;6.30;;;5.83;;
703;SDS011;335;48.694;9.120;2023-04-25T08:46:26;8.37;;;5.87;;
703;SDS011;335;48.694;9.120;2023-04-25T08:48:52;5.10;;;4.70;;
703;SDS011;335;48.694;9.120;2023-04-25T08:51:22;4.50;;;3.83;;
703;SDS011;335;48.694;9.120;2023-04-25T08:53:50;5.90;;;5.37;;
703;SDS011;335;48.694;9.120;2023-04-25T08:56:16;5.87;;;5.40;;
703;SDS011;335;48.694;9.120;2023-04-25T08:58:50;5.70;;;5.30;;
703;SDS011;335;48.694;9.120;2023-04-25T09:01:15;6.30;;;5.80;;
703;SDS011;335;48.694;9.120;2023-04-25T09:03:41;6.93;;;6.23;;
703;SDS011;335;48.694;9.120;2023-04-25T09:06:07;6.73;;;6.17;;
703;SDS011;335;48.694;9.120;2023-04-25T09:08:36;6.73;;;6.17;;
703;SDS011;335;48.694;9.120;2023-04-25T09:11:01;6.23;;;5.67;;
703;SDS011;335;48.694;9.120;2023-04-25T09:13:28;6.20;;;5.60;;
703;SDS011;335;48.694;9.120;2023-04-25T09:15:54;6.13;;;5.60;;
703;SDS011;335;48.694;9.120;2023-04-25T09:18:21;5.77;;;5.17;;
703;SDS011;335;48.694;9.120;2023-04-25T09:20:51;4.80;;;4.47;;
703;SDS011;335;48.694;9.120;2023-04-25T09:23:20;6.10;;;5.50;;
703;SDS011;335;48.694;9.120;2023-04-25T09:25:50;5.03;;;4.73;;
703;SDS011;335;48.694;9.120;2023-04-25T09:28:16;5.37;;;4.97;;
703;SDS011;335;48.694;9.120;2023-04-25T09:30:48;5.37;;;4.87;;
703;SDS011;335;48.694;9.120;2023-04-25T09:33:13;5.10;;;4.80;;
703;SDS011;335;48.694;9.120;2023-04-25T09:35:39;4.60;;;4.20;;
703;SDS011;335;48.694;9.120;2023-04-25T09:38:13;5.13;;;4.73;;
703;SDS011;335;48.694;9.120;2023-04-25T09:40:42;4.63;;;4.33;;
703;SDS011;335;48.694;9.120;2023-04-25T09:43:09;5.33;;;4.83;;
703;SDS011;335;48.694;9.120;2023-04-25T09:45:42;6.00;;;5.50;;
703;SDS011;335;48.694;9.120;2023-04-25T09:48:11;3.47;;;3.27;;
703;SDS011;335;48.694;9.120;2023-04-25T09:51:31;5.70;;;5.20;;
703;SDS011;335;48.694;9.120;2023-04-25T09:53:33;5.13;;;4.70;;
703;SDS011;335;48.694;9.120;2023-04-25T09:56:06;3.93;;;3.60;;
703;SDS011;335;48.694;9.120;2023-04-25T09:58:32;3.80;;;3.60;;
703;SDS011;335;48.694;9.120;2023-04-25T10:01:08;4.17;;;3.87;;
703;SDS011;335;48.694;9.120;2023-04-25T10:03:35;3.93;;;3.63;;
703;SDS011;335;48.694;9.120;2023-04-25T10:06:03;3.30;;;3.10;;
703;SDS011;335;48.694;9.120;2023-04-25T10:08:34;4.40;;;2.83;;
703;SDS011;335;48.694;9.120;2023-04-25T10:11:01;2.27;;;2.17;;
703;SDS011;335;48.694;9.120;2023-04-25T10:13:28;2.57;;;2.37;;
703;SDS011;335;48.694;9.120;2023-04-25T10:18:59;1.30;;;1.30;;
703;SDS011;335;48.694;9.120;2023-04-25T10:21:25;1.93;;;1.83;;
703;SDS011;335;48.694;9.120;2023-04-25T10:23:52;2.23;;;2.13;;
703;SDS011;335;48.694;9.120;2023-04-25T10:26:18;2.10;;;2.00;;
703;SDS011;335;48.694;9.120;2023-04-25T10:29:00;1.73;;;1.63;;
703;SDS011;335;48.694;9.120;2023-04-25T10:31:26;1.07;;;1.07;;
703;SDS011;335;48.694;9.120;2023-04-25T10:33:52;1.00;;;1.00;;
703;SDS011;335;48.694;9.120;2023-04-25T10:36:18;1.10;;;1.10;;
703;SDS011;335;48.694;9.120;2023-04-25T10:38:46;0.77;;;0.77;;
703;SDS011;335;48.694;9.120;2023-04-25T10:41:12;0.50;;;0.47;;
703;SDS011;335;48.694;9.120;2023-04-25T10:43:45;0.50;;;0.50;;
703;SDS011;335;48.694;9.120;2023-04-25T10:46:27;0.60;;;0.60;;
703;SDS011;335;48.694;9.120;2023-04-25T10:48:56;3.03;;;0.57;;
703;SDS011;335;48.694;9.120;2023-04-25T10:51:29;0.80;;;0.80;;
703;SDS011;335;48.694;9.120;2023-04-25T10:54:03;0.50;;;0.50;;
703;SDS011;335;48.694;9.120;2023-04-25T10:59:08;0.40;;;0.40;;
703;SDS011;335;48.694;9.120;2023-04-25T11:01:37;0.90;;;0.80;;
703;SDS011;335;48.694;9.120;2023-04-25T11:04:02;0.73;;;0.73;;
703;SDS011;335;48.694;9.120;2023-04-25T11:06:44;1.10;;;0.90;;
703;SDS011;335;48.694;9.120;2023-04-25T11:09:16;0.60;;;0.60;;
703;SDS011;335;48.694;9.120;2023-04-25T11:11:41;0.77;;;0.77;;
703;SDS011;335;48.694;9.120;2023-04-25T11:14:07;0.80;;;0.80;;
703;SDS011;335;48.694;9.120;2023-04-25T11:16:32;0.80;;;0.80;;
703;SDS011;335;48.694;9.120;2023-04-25T11:18:58;0.77;;;0.77;;
703;SDS011;335;48.694;9.120;2023-04-25T11:21:25;0.70;;;0.67;;
703;SDS011;335;48.694;9.120;2023-04-25T11:23:52;1.23;;;1.13;;
703;SDS011;335;48.694;9.120;2023-04-25T11:26:19;1.63;;;1.60;;
703;SDS011;335;48.694;9.120;2023-04-25T11:28:45;1.50;;;1.50;;
703;SDS011;335;48.694;9.120;2023-04-25T11:31:11;2.07;;;1.97;;
703;SDS011;335;48.694;9.120;2023-04-25T11:33:36;2.40;;;2.20;;
703;SDS011;335;48.694;9.120;2023-04-25T11:36:01;2.80;;;2.70;;
703;SDS011;335;48.694;9.120;2023-04-25T11:38:27;2.17;;;2.07;;
703;SDS011;335;48.694;9.120;2023-04-25T11:40:52;1.83;;;1.73;;
703;SDS011;335;48.694;9.120;2023-04-25T11:43:21;2.00;;;1.90;;
703;SDS011;335;48.694;9.120;2023-04-25T11:45:50;2.73;;;2.53;;
703;SDS011;335;48.694;9.120;2023-04-25T11:48:16;3.60;;;1.83;;
703;SDS011;335;48.694;9.120;2023-04-25T11:50:42;3.33;;;2.43;;
703;SDS011;335;48.694;9.120;2023-04-25T11:53:07;2.40;;;2.00;;
703;SDS011;335;48.694;9.120;2023-04-25T11:55:33;1.80;;;1.70;;
703;SDS011;335;48.694;9.120;2023-04-25T11:57:59;2.50;;;2.40;;
703;SDS011;335;48.694;9.120;2023-04-25T12:00:25;2.43;;;2.33;;
703;SDS011;335;48.694;9.120;2023-04-25T12:02:52;2.40;;;2.30;;
703;SDS011;335;48.694;9.120;2023-04-25T12:05:19;3.40;;;3.10;;
703;SDS011;335;48.694;9.120;2023-04-25T12:07:45;2.63;;;2.43;;
703;SDS011;335;48.694;9.120;2023-04-25T12:10:12;2.97;;;2.80;;
703;SDS011;335;48.694;9.120;2023-04-25T12:12:44;2.10;;;2.00;;
703;SDS011;335;48.694;9.120;2023-04-25T12:15:17;2.40;;;2.30;;
703;SDS011;335;48.694;9.120;2023-04-25T12:17:49;2.13;;;2.03;;
703;SDS011;335;48.694;9.120;2023-04-25T12:20:16;2.40;;;2.30;;
703;SDS011;335;48.694;9.120;2023-04-25T12:22:44;2.60;;;2.47;;
703;SDS011;335;48.694;9.120;2023-04-25T12:25:10;2.20;;;2.10;;
703;SDS011;335;48.694;9.120;2023-04-25T12:27:37;2.50;;;2.37;;
703;SDS011;335;48.694;9.120;2023-04-25T12:30:05;2.87;;;2.77;;
703;SDS011;335;48.694;9.120;2023-04-25T12:32:31;3.20;;;3.00;;
703;SDS011;335;48.694;9.120;2023-04-25T12:34:57;3.30;;;3.10;;
703;SDS011;335;48.694;9.120;2023-04-25T12:37:22;3.20;;;3.00;;
703;SDS011;335;48.694;9.120;2023-04-25T12:39:48;3.83;;;3.60;;
703;SDS011;335;48.694;9.120;2023-04-25T12:42:13;3.70;;;3.40;;
703;SDS011;335;48.694;9.120;2023-04-25T12:44:38;4.37;;;3.57;;
703;SDS011;335;48.694;9.120;2023-04-25T12:47:03;4.20;;;4.00;;
703;SDS011;335;48.694;9.120;2023-04-25T12:49:29;4.73;;;4.33;;
703;SDS011;335;48.694;9.120;2023-04-25T12:51:54;4.00;;;3.70;;
703;SDS011;335;48.694;9.120;2023-04-25T12:54:20;3.10;;;3.00;;
703;SDS011;335;48.694;9.120;2023-04-25T12:56:45;3.53;;;3.33;;
703;SDS011;335;48.694;9.120;2023-04-25T12:59:11;3.80;;;3.60;;
703;SDS011;335;48.694;9.120;2023-04-25T13:01:36;3.00;;;2.80;;
703;SDS011;335;48.694;9.120;2023-04-25T13:04:02;4.10;;;3.80;;
703;SDS011;335;48.694;9.120;2023-04-25T13:06:27;3.90;;;3.53;;
703;SDS011;335;48.694;9.120;2023-04-25T13:08:54;3.60;;;3.40;;
703;SDS011;335;48.694;9.120;2023-04-25T13:11:20;4.63;;;3.90;;
703;SDS011;335;48.694;9.120;2023-04-25T13:13:45;4.13;;;3.77;;
703;SDS011;335;48.694;9.120;2023-04-25T13:16:11;4.20;;;3.90;;
703;SDS011;335;48.694;9.120;2023-04-25T13:18:38;4.17;;;3.87;;
703;SDS011;335;48.694;9.120;2023-04-25T13:21:04;4.13;;;3.83;;
703;SDS011;335;48.694;9.120;2023-04-25T13:23:29;3.70;;;3.50;;
703;SDS011;335;48.694;9.120;2023-04-25T13:25:55;6.80;;;4.47;;
703;SDS011;335;48.694;9.120;2023-04-25T13:28:22;3.30;;;3.10;;
703;SDS011;335;48.694;9.120;2023-04-25T13:30:48;4.20;;;3.90;;
703;SDS011;335;48.694;9.120;2023-04-25T13:33:14;3.80;;;3.50;;
703;SDS011;335;48.694;9.120;2023-04-25T13:35:40;4.40;;;4.03;;
703;SDS011;335;48.694;9.120;2023-04-25T13:38:05;4.30;;;4.00;;
703;SDS011;335;48.694;9.120;2023-04-25T13:40:31;4.00;;;3.77;;
703;SDS011;335;48.694;9.120;2023-04-25T13:42:57;4.33;;;3.87;;
703;SDS011;335;48.694;9.120;2023-04-25T13:45:22;4.90;;;4.40;;
703;SDS011;335;48.694;9.120;2023-04-25T13:47:47;5.70;;;5.20;;
703;SDS011;335;48.694;9.120;2023-04-25T13:50:13;5.53;;;5.13;;
703;SDS011;335;48.694;9.120;2023-04-25T13:52:39;4.53;;;4.20;;
703;SDS011;335;48.694;9.120;2023-04-25T13:55:05;4.57;;;4.20;;
703;SDS011;335;48.694;9.120;2023-04-25T13:57:32;5.70;;;5.30;;
703;SDS011;335;48.694;9.120;2023-04-25T13:59:57;5.40;;;5.00;;
703;SDS011;335;48.694;9.120;2023-04-25T14:02:23;5.80;;;5.30;;
703;SDS011;335;48.694;9.120;2023-04-25T14:04:48;6.03;;;5.50;;
703;SDS011;335;48.694;9.120;2023-04-25T14:07:14;6.00;;;5.53;;
703;SDS011;335;48.694;9.120;2023-04-25T14:09:42;6.77;;;6.27;;
703;SDS011;335;48.694;9.120;2023-04-25T14:12:08;6.30;;;5.77;;
703;SDS011;335;48.694;9.120;2023-04-25T14:14:33;5.63;;;5.23;;
703;SDS011;335;48.694;9.120;2023-04-25T14:16:59;6.20;;;5.80;;
703;SDS011;335;48.694;9.120;2023-04-25T14:19:24;6.73;;;6.10;;
703;SDS011;335;48.694;9.120;2023-04-25T14:21:50;5.60;;;5.20;;
703;SDS011;335;48.694;9.120;2023-04-25T14:24:15;7.07;;;5.53;;
703;SDS011;335;48.694;9.120;2023-04-25T14:26:41;5.60;;;5.20;;
703;SDS011;335;48.694;9.120;2023-04-25T14:29:07;6.13;;;5.63;;
703;SDS011;335;48.694;9.120;2023-04-25T14:31:33;6.00;;;5.60;;
703;SDS011;335;48.694;9.120;2023-04-25T14:33:59;6.30;;;5.90;;
703;SDS011;335;48.694;9.120;2023-04-25T14:36:25;6.03;;;5.10;;
703;SDS011;335;48.694;9.120;2023-04-25T14:38:51;4.70;;;4.30;;
703;SDS011;335;48.694;9.120;2023-04-25T14:41:16;5.43;;;4.50;;
703;SDS011;335;48.694;9.120;2023-04-25T14:43:42;4.30;;;3.67;;
703;SDS011;335;48.694;9.120;2023-04-25T14:46:07;4.93;;;4.63;;
703;SDS011;335;48.694;9.120;2023-04-25T14:48:33;5.50;;;5.10;;
703;SDS011;335;48.694;9.120;2023-04-25T14:50:59;4.43;;;4.13;;
703;SDS011;335;48.694;9.120;2023-04-25T14:53:25;4.23;;;4.03;;
703;SDS011;335;48.694;9.120;2023-04-25T14:55:51;3.97;;;3.77;;
703;SDS011;335;48.694;9.120;2023-04-25T14:58:17;3.90;;;3.60;;
703;SDS011;335;48.694;9.120;2023-04-25T15:00:42;3.93;;;3.70;;
703;SDS011;335;48.694;9.120;2023-04-25T15:03:09;3.40;;;3.20;;
703;SDS011;335;48.694;9.120;2023-04-25T15:05:34;3.80;;;3.50;;
703;SDS011;335;48.694;9.120;2023-04-25T15:08:02;4.10;;;3.80;;
703;SDS011;335;48.694;9.120;2023-04-25T15:10:27;3.73;;;3.53;;
703;SDS011;335;48.694;9.120;2023-04-25T15:12:53;4.17;;;3.97;;
703;SDS011;335;48.694;9.120;2023-04-25T15:15:18;3.70;;;3.50;;
703;SDS011;335;48.694;9.120;2023-04-25T15:17:44;4.00;;;3.80;;
703;SDS011;335;48.694;9.120;2023-04-25T15:20:10;4.07;;;3.87;;
703;SDS011;335;48.694;9.120;2023-04-25T15:22:36;4.00;;;3.73;;
703;SDS011;335;48.694;9.120;2023-04-25T15:25:02;3.20;;;3.10;;
703;SDS011;335;48.694;9.120;2023-04-25T15:27:28;3.53;;;3.40;;
703;SDS011;335;48.694;9.120;2023-04-25T15:29:53;3.77;;;3.37;;
703;SDS011;335;48.694;9.120;2023-04-25T15:32:19;3.63;;;3.43;;
703;SDS011;335;48.694;9.120;2023-04-25T15:34:45;3.67;;;3.30;;
703;SDS011;335;48.694;9.120;2023-04-25T15:37:10;2.87;;;2.67;;
703;SDS011;335;48.694;9.120;2023-04-25T15:39:35;3.00;;;2.80;;
703;SDS011;335;48.694;9.120;2023-04-25T15:42:01;2.87;;;2.77;;
703;SDS011;335;48.694;9.120;2023-04-25T15:44:27;2.60;;;2.50;;